createdAt,value
2023-02-25T00:00:34.933Z,1.20
2023-02-25T00:03:01.950Z,1.23
2023-02-25T00:05:31.775Z,0.77
2023-02-25T00:07:59.008Z,0.65
2023-02-25T00:10:25.702Z,1.30
2023-02-25T00:12:52.371Z,1.02
2023-02-25T00:15:18.977Z,0.63
2023-02-25T00:17:45.588Z,0.60
2023-02-25T00:20:15.549Z,1.20
2023-02-25T00:22:42.174Z,0.70
2023-02-25T00:25:09.995Z,0.40
2023-02-25T00:27:37.169Z,0.80
2023-02-25T00:30:05.517Z,0.50
2023-02-25T00:32:32.495Z,0.95
2023-02-25T00:34:59.539Z,0.85
2023-02-25T00:37:26.340Z,0.40
2023-02-25T00:39:52.963Z,0.90
2023-02-25T00:42:19.856Z,0.70
2023-02-25T00:44:48.737Z,0.75
2023-02-25T00:47:17.828Z,1.35
2023-02-25T00:49:48.613Z,0.70
2023-02-25T00:52:16.647Z,0.57
2023-02-25T00:54:43.328Z,0.90
2023-02-25T00:57:10.321Z,0.50
2023-02-25T00:59:37.236Z,0.85
2023-02-25T01:02:04.251Z,0.65
2023-02-25T01:04:31.048Z,1.13
2023-02-25T01:06:57.847Z,0.85
2023-02-25T01:09:24.483Z,0.55
2023-02-25T01:11:51.549Z,0.60
2023-02-25T01:14:21.944Z,1.05
2023-02-25T01:16:50.523Z,0.97
2023-02-25T01:19:24.908Z,0.93
2023-02-25T01:21:54.874Z,0.32
2023-02-25T01:24:25.727Z,0.60
2023-02-25T01:26:54.654Z,0.68
2023-02-25T01:29:26.380Z,0.77
2023-02-25T01:31:57.158Z,0.75
2023-02-25T01:34:24.591Z,0.93
2023-02-25T01:36:51.391Z,0.80
2023-02-25T01:39:19.740Z,1.88
2023-02-25T01:41:48.888Z,0.83
2023-02-25T01:44:18.546Z,1.10
2023-02-25T01:46:47.907Z,1.30
2023-02-25T01:49:24.929Z,1.20
2023-02-25T01:51:57.199Z,1.00
2023-02-25T01:54:24.184Z,1.70
2023-02-25T01:56:54.619Z,0.63
2023-02-25T01:59:24.748Z,0.98
2023-02-25T02:01:51.794Z,0.45
2023-02-25T02:04:20.426Z,0.55
2023-02-25T02:06:49.525Z,0.70
2023-02-25T02:09:19.854Z,1.30
2023-02-25T02:11:46.560Z,0.40
2023-02-25T02:14:20.678Z,1.17
2023-02-25T02:17:06.061Z,0.60
2023-02-25T02:19:35.545Z,0.70
2023-02-25T02:22:13.553Z,1.13
2023-02-25T02:24:52.105Z,1.50
2023-02-25T02:27:27.604Z,0.93
2023-02-25T02:30:16.902Z,0.63
2023-02-25T02:32:53.657Z,0.93
2023-02-25T02:35:22.308Z,0.90
2023-02-25T02:38:04.811Z,0.28
2023-02-25T02:41:09.659Z,0.70
2023-02-25T02:43:56.144Z,0.70
2023-02-25T02:46:41.010Z,1.20
2023-02-25T02:49:15.546Z,0.75
2023-02-25T02:51:48.661Z,0.55
2023-02-25T02:54:18.426Z,0.60
2023-02-25T02:56:48.586Z,0.98
2023-02-25T02:59:21.847Z,1.20
2023-02-25T03:01:56.322Z,0.88
2023-02-25T03:04:29.615Z,1.02
2023-02-25T03:07:01.475Z,1.38
2023-02-25T03:09:36.735Z,0.50
2023-02-25T03:12:03.361Z,1.27
2023-02-25T03:14:30.635Z,0.80
2023-02-25T03:17:19.355Z,1.60
2023-02-25T03:19:53.623Z,1.85
2023-02-25T03:22:27.747Z,0.65
2023-02-25T03:25:01.623Z,1.57
2023-02-25T03:27:34.514Z,0.80
2023-02-25T03:30:07.390Z,1.58
2023-02-25T03:32:37.753Z,0.98
2023-02-25T03:35:12.365Z,1.15
2023-02-25T03:37:42.310Z,0.53
2023-02-25T03:40:14.482Z,1.77
2023-02-25T03:42:46.302Z,1.23
2023-02-25T03:45:15.284Z,1.27
2023-02-25T03:47:43.527Z,0.70
2023-02-25T03:50:21.887Z,1.30
2023-02-25T03:52:48.451Z,0.30
2023-02-25T03:55:17.662Z,1.27
2023-02-25T03:57:48.044Z,0.93
2023-02-25T04:00:25.208Z,1.10
2023-02-25T04:02:52.099Z,0.53
2023-02-25T04:05:21.263Z,1.00
2023-02-25T04:07:47.958Z,0.80
2023-02-25T04:10:17.268Z,1.88
2023-02-25T04:12:43.863Z,1.35
2023-02-25T04:15:11.345Z,0.53
2023-02-25T04:17:37.947Z,1.10
2023-02-25T04:20:05.560Z,0.82
2023-02-25T04:22:33.340Z,0.60
2023-02-25T04:25:00.206Z,0.73
2023-02-25T04:27:27.447Z,1.40
2023-02-25T04:29:54.387Z,1.13
2023-02-25T04:32:21.315Z,0.70
2023-02-25T04:34:47.971Z,0.80
2023-02-25T04:37:14.792Z,0.40
2023-02-25T04:39:41.621Z,0.70
2023-02-25T04:42:08.151Z,0.70
2023-02-25T04:44:34.957Z,0.80
2023-02-25T04:47:01.941Z,1.42
2023-02-25T04:49:28.667Z,0.75
2023-02-25T04:51:55.470Z,1.43
2023-02-25T04:54:22.646Z,1.10
2023-02-25T04:56:49.390Z,0.82
2023-02-25T04:59:16.540Z,0.65
2023-02-25T05:01:43.705Z,0.47
2023-02-25T05:04:12.547Z,1.37
2023-02-25T05:06:39.357Z,0.95
2023-02-25T05:09:05.989Z,0.65
2023-02-25T05:11:32.848Z,1.85
2023-02-25T05:13:59.494Z,1.05
2023-02-25T05:16:26.979Z,0.33
2023-02-25T05:18:53.880Z,0.70
2023-02-25T05:21:23.883Z,0.55
2023-02-25T05:23:53.345Z,0.68
2023-02-25T05:26:22.711Z,1.02
2023-02-25T05:28:53.564Z,0.80
2023-02-25T05:31:21.286Z,0.52
2023-02-25T05:33:48.092Z,0.93
2023-02-25T05:36:16.620Z,1.27
2023-02-25T05:38:44.563Z,0.95
2023-02-25T05:41:12.456Z,1.33
2023-02-25T05:43:40.072Z,1.08
2023-02-25T05:46:11.983Z,0.73
2023-02-25T05:48:41.376Z,0.40
2023-02-25T05:51:13.776Z,0.80
2023-02-25T05:53:40.663Z,1.13
2023-02-25T05:56:10.734Z,1.08
2023-02-25T05:58:37.996Z,1.13
2023-02-25T06:01:11.535Z,1.23
2023-02-25T06:03:39.042Z,1.55
2023-02-25T06:06:06.863Z,0.50
2023-02-25T06:08:34.734Z,0.68
2023-02-25T06:11:02.159Z,0.68
2023-02-25T06:13:28.886Z,0.40
2023-02-25T06:15:55.689Z,0.57
2023-02-25T06:18:22.490Z,0.93
2023-02-25T06:20:49.317Z,0.85
2023-02-25T06:23:16.297Z,0.63
2023-02-25T06:25:43.142Z,1.02
2023-02-25T06:28:09.844Z,1.00
2023-02-25T06:30:36.524Z,1.17
2023-02-25T06:33:03.154Z,0.77
2023-02-25T06:35:29.656Z,1.10
2023-02-25T06:37:57.614Z,1.35
2023-02-25T06:40:24.433Z,1.05
2023-02-25T06:42:51.375Z,0.50
2023-02-25T06:45:18.150Z,0.65
2023-02-25T06:47:44.936Z,0.75
2023-02-25T06:50:12.194Z,1.38
2023-02-25T06:52:38.822Z,3.42
2023-02-25T06:55:07.067Z,0.80
2023-02-25T06:57:34.756Z,1.27
2023-02-25T07:00:01.568Z,0.65
2023-02-25T07:02:28.210Z,0.80
2023-02-25T07:04:55.357Z,0.75
2023-02-25T07:07:24.003Z,0.80
2023-02-25T07:09:50.636Z,1.17
2023-02-25T07:12:17.370Z,1.27
2023-02-25T07:14:43.911Z,0.40
2023-02-25T07:17:10.499Z,1.25
2023-02-25T07:19:37.139Z,0.37
2023-02-25T07:22:05.269Z,0.60
2023-02-25T07:24:31.843Z,0.43
2023-02-25T07:26:58.441Z,1.13
2023-02-25T07:29:25.219Z,1.17
2023-02-25T07:31:51.844Z,0.70
2023-02-25T07:34:19.231Z,1.05
2023-02-25T07:36:45.863Z,1.10
2023-02-25T07:39:12.611Z,0.90
2023-02-25T07:41:39.673Z,0.57
2023-02-25T07:44:07.360Z,0.77
2023-02-25T07:46:34.148Z,1.38
2023-02-25T07:49:01.060Z,1.40
2023-02-25T07:51:28.561Z,0.75
2023-02-25T07:53:57.452Z,1.00
2023-02-25T07:56:26.825Z,0.60
2023-02-25T07:58:53.461Z,0.50
2023-02-25T08:01:31.809Z,0.98
2023-02-25T08:04:00.372Z,0.90
2023-02-25T08:06:28.087Z,0.80
2023-02-25T08:08:55.438Z,1.47
2023-02-25T08:11:24.302Z,0.95
2023-02-25T08:13:51.354Z,1.13
2023-02-25T08:16:20.106Z,1.33
2023-02-25T08:18:47.965Z,1.00
2023-02-25T08:21:23.800Z,1.57
2023-02-25T08:23:53.805Z,1.58
2023-02-25T08:26:22.728Z,1.17
2023-02-25T08:28:51.383Z,1.40
2023-02-25T08:31:19.142Z,1.08
2023-02-25T08:33:50.056Z,0.70
2023-02-25T08:36:21.070Z,2.13
2023-02-25T08:38:48.033Z,0.80
2023-02-25T08:41:14.835Z,1.65
2023-02-25T08:43:41.521Z,1.00
2023-02-25T08:46:08.606Z,1.17
2023-02-25T08:48:35.802Z,0.60
2023-02-25T08:51:08.428Z,0.65
2023-02-25T08:53:39.030Z,1.42
2023-02-25T08:56:08.793Z,0.80
2023-02-25T08:58:36.034Z,1.07
2023-02-25T09:01:08.936Z,0.45
2023-02-25T09:03:35.715Z,0.63
2023-02-25T09:06:02.620Z,0.50
2023-02-25T09:08:29.171Z,0.52
2023-02-25T09:10:55.905Z,0.80
2023-02-25T09:13:22.892Z,0.60
2023-02-25T09:15:57.640Z,0.43
2023-02-25T09:18:24.357Z,0.50
2023-02-25T09:20:51.761Z,0.30
2023-02-25T09:23:18.702Z,0.50
2023-02-25T09:25:45.706Z,0.40
2023-02-25T09:28:12.936Z,0.70
2023-02-25T09:30:40.189Z,0.80
2023-02-25T09:33:07.093Z,0.40
2023-02-25T09:35:34.000Z,0.47
2023-02-25T09:38:00.810Z,0.40
2023-02-25T09:40:27.903Z,0.70
2023-02-25T09:43:08.253Z,0.65
2023-02-25T09:45:36.426Z,0.30
2023-02-25T09:48:17.532Z,0.30
2023-02-25T09:50:52.216Z,0.43
2023-02-25T09:53:34.257Z,0.30
2023-02-25T09:56:02.615Z,0.55
2023-02-25T09:58:49.746Z,0.50
2023-02-25T10:01:27.522Z,0.43
2023-02-25T10:04:13.553Z,0.65
2023-02-25T10:06:44.342Z,0.40
2023-02-25T10:09:32.444Z,0.88
2023-02-25T10:12:53.806Z,0.68
2023-02-25T10:15:35.633Z,1.20
2023-02-25T10:18:20.717Z,0.50
2023-02-25T10:20:52.068Z,0.40
2023-02-25T10:23:51.517Z,0.52
2023-02-25T10:26:25.990Z,1.00
2023-02-25T10:28:56.534Z,0.83
2023-02-25T10:31:24.478Z,0.50
2023-02-25T10:33:53.815Z,0.40
2023-02-25T10:36:26.287Z,0.32
2023-02-25T10:38:54.236Z,0.50
2023-02-25T10:41:24.165Z,0.87
2023-02-25T10:43:51.946Z,0.85
2023-02-25T10:46:33.965Z,0.57
2023-02-25T10:49:03.382Z,0.60
2023-02-25T10:51:30.122Z,0.47
2023-02-25T10:53:56.570Z,0.50
2023-02-25T10:56:26.235Z,1.27
2023-02-25T10:59:06.970Z,0.40
2023-02-25T11:01:42.483Z,0.50
2023-02-25T11:04:15.323Z,0.50
2023-02-25T11:06:43.673Z,0.60
2023-02-25T11:09:19.423Z,0.30
2023-02-25T11:12:12.376Z,0.30
2023-02-25T11:14:40.014Z,0.47
2023-02-25T11:17:20.603Z,0.60
2023-02-25T11:19:53.048Z,0.40
2023-02-25T11:22:23.915Z,0.80
2023-02-25T11:24:59.809Z,0.60
2023-02-25T11:27:39.213Z,0.65
2023-02-25T11:30:14.641Z,0.43
2023-02-25T11:32:46.249Z,0.30
2023-02-25T11:35:24.359Z,0.85
2023-02-25T11:37:51.171Z,0.30
2023-02-25T11:40:29.795Z,0.45
2023-02-25T11:43:05.706Z,0.52
2023-02-25T11:45:40.363Z,0.67
2023-02-25T11:48:20.644Z,0.50
2023-02-25T11:51:00.170Z,0.77
2023-02-25T11:54:00.609Z,0.40
2023-02-25T11:56:39.903Z,0.82
2023-02-25T11:59:13.438Z,0.80
2023-02-25T12:02:24.143Z,0.88
2023-02-25T12:05:34.272Z,0.50
2023-02-25T12:08:17.724Z,0.50
2023-02-25T12:11:03.115Z,0.50
2023-02-25T12:13:52.148Z,0.50
2023-02-25T12:16:31.273Z,0.52
2023-02-25T12:19:02.592Z,0.52
2023-02-25T12:22:12.872Z,0.30
2023-02-25T12:24:58.704Z,0.40
2023-02-25T12:27:47.250Z,0.57
2023-02-25T12:30:38.850Z,0.40
2023-02-25T12:33:24.422Z,0.60
2023-02-25T12:36:09.277Z,0.57
2023-02-25T12:39:03.312Z,0.55
2023-02-25T12:41:38.182Z,0.40
2023-02-25T12:44:26.711Z,0.52
2023-02-25T12:47:10.767Z,0.70
2023-02-25T12:49:55.937Z,0.45
2023-02-25T12:52:41.694Z,0.40
2023-02-25T12:55:46.704Z,0.93
2023-02-25T12:58:48.707Z,0.45
2023-02-25T13:01:34.386Z,0.40
2023-02-25T13:04:13.865Z,0.50
2023-02-25T13:07:19.217Z,0.63
2023-02-25T13:10:23.619Z,0.70
2023-02-25T13:13:25.440Z,0.55
2023-02-25T13:15:55.000Z,0.50
2023-02-25T13:18:50.933Z,0.93
2023-02-25T13:21:28.583Z,0.52
2023-02-25T13:24:06.582Z,0.77
2023-02-25T13:26:51.981Z,1.15
2023-02-25T13:29:49.462Z,0.98
2023-02-25T13:32:26.775Z,0.60
2023-02-25T13:35:20.340Z,0.70
2023-02-25T13:38:09.048Z,0.47
2023-02-25T13:40:50.923Z,0.40
2023-02-25T13:43:45.654Z,0.73
2023-02-25T13:46:46.673Z,0.75
2023-02-25T13:49:49.896Z,0.73
2023-02-25T13:52:26.089Z,0.50
2023-02-25T13:55:10.148Z,0.60
2023-02-25T13:57:49.243Z,0.52
2023-02-25T14:00:53.402Z,0.40
2023-02-25T14:03:48.252Z,0.70
2023-02-25T14:06:30.055Z,0.30
2023-02-25T14:09:26.171Z,0.65
2023-02-25T14:12:00.464Z,0.52
2023-02-25T14:14:40.881Z,0.70
2023-02-25T14:17:38.621Z,0.40
2023-02-25T14:20:23.099Z,0.73
2023-02-25T14:22:56.700Z,0.40
2023-02-25T14:25:47.391Z,0.30
2023-02-25T14:28:43.963Z,0.50
2023-02-25T14:31:34.375Z,0.35
2023-02-25T14:34:18.750Z,0.50
2023-02-25T14:37:19.438Z,0.55
2023-02-25T14:40:20.870Z,0.55
2023-02-25T14:43:15.970Z,0.60
2023-02-25T14:46:02.962Z,0.55
2023-02-25T14:48:59.913Z,0.40
2023-02-25T14:51:40.701Z,0.32
2023-02-25T14:54:32.319Z,0.38
2023-02-25T14:57:07.940Z,0.43
2023-02-25T15:00:00.292Z,0.45
2023-02-25T15:02:49.390Z,0.30
2023-02-25T15:05:39.233Z,0.57
2023-02-25T15:08:16.342Z,0.47
2023-02-25T15:10:54.318Z,0.40
2023-02-25T15:14:09.967Z,0.85
2023-02-25T15:16:45.918Z,0.43
2023-02-25T15:19:39.293Z,0.40
2023-02-25T15:22:22.310Z,0.60
2023-02-25T15:24:49.770Z,0.40
2023-02-25T15:27:41.667Z,0.70
2023-02-25T15:30:18.680Z,0.40
2023-02-25T15:33:03.782Z,0.68
2023-02-25T15:35:36.667Z,0.52
2023-02-25T15:38:20.011Z,0.73
2023-02-25T15:40:49.086Z,0.77
2023-02-25T15:43:16.381Z,0.20
2023-02-25T15:45:47.101Z,0.70
2023-02-25T15:48:15.404Z,0.50
2023-02-25T15:50:42.038Z,0.60
2023-02-25T15:53:21.571Z,0.45
2023-02-25T15:55:50.687Z,0.70
2023-02-25T15:58:23.540Z,0.73
2023-02-25T16:00:50.511Z,0.50
2023-02-25T16:03:32.289Z,0.40
2023-02-25T16:06:01.792Z,0.75
2023-02-25T16:08:35.775Z,0.40
2023-02-25T16:11:05.817Z,0.50
2023-02-25T16:13:35.893Z,0.80
2023-02-25T16:16:04.220Z,0.70
2023-02-25T16:18:47.725Z,0.50
2023-02-25T16:21:39.450Z,0.60
2023-02-25T16:24:13.024Z,0.30
2023-02-25T16:26:54.695Z,0.40
2023-02-25T16:29:39.331Z,0.52
2023-02-25T16:32:22.380Z,0.50
2023-02-25T16:34:54.861Z,0.53
2023-02-25T16:37:43.401Z,0.38
2023-02-25T16:40:24.906Z,0.50
2023-02-25T16:42:53.446Z,0.40
2023-02-25T16:45:29.141Z,0.32
2023-02-25T16:48:07.662Z,0.40
2023-02-25T16:50:35.922Z,0.30
2023-02-25T16:53:04.282Z,0.32
2023-02-25T16:55:39.770Z,0.30
2023-02-25T16:58:18.450Z,0.30
2023-02-25T17:01:02.547Z,0.40
2023-02-25T17:03:42.867Z,0.70
2023-02-25T17:06:18.341Z,0.57
2023-02-25T17:08:48.418Z,0.50
2023-02-25T17:11:24.214Z,0.88
2023-02-25T17:13:54.659Z,0.40
2023-02-25T17:16:32.404Z,0.80
2023-02-25T17:19:04.053Z,0.60
2023-02-25T17:21:33.972Z,0.73
2023-02-25T17:24:02.497Z,0.68
2023-02-25T17:26:31.196Z,0.53
2023-02-25T17:29:01.380Z,0.80
2023-02-25T17:31:30.244Z,0.70
2023-02-25T17:34:02.693Z,0.50
2023-02-25T17:36:35.460Z,2.92
2023-02-25T17:39:06.350Z,0.60
2023-02-25T17:41:34.502Z,0.80
2023-02-25T17:44:01.506Z,0.65
2023-02-25T17:46:41.450Z,0.50
2023-02-25T17:49:30.322Z,0.93
2023-02-25T17:52:00.835Z,0.83
2023-02-25T17:54:30.347Z,0.90
2023-02-25T17:56:59.457Z,1.00
2023-02-25T17:59:39.310Z,0.85
2023-02-25T18:02:33.126Z,1.10
2023-02-25T18:05:11.877Z,1.20
2023-02-25T18:07:42.036Z,1.25
2023-02-25T18:10:26.064Z,1.75
2023-02-25T18:12:55.458Z,1.25
2023-02-25T18:15:26.440Z,1.58
2023-02-25T18:17:58.454Z,1.00
2023-02-25T18:20:40.928Z,1.48
2023-02-25T18:23:23.653Z,2.60
2023-02-25T18:26:11.388Z,2.35
2023-02-25T18:28:39.059Z,2.67
2023-02-25T18:31:06.179Z,3.57
2023-02-25T18:33:32.880Z,2.42
2023-02-25T18:36:00.218Z,2.10
2023-02-25T18:38:29.796Z,2.10
2023-02-25T18:40:56.839Z,2.10
2023-02-25T18:43:30.975Z,2.23
2023-02-25T18:45:57.864Z,2.40
2023-02-25T18:48:24.952Z,2.47
2023-02-25T18:50:51.712Z,2.03
2023-02-25T18:53:23.912Z,2.03
2023-02-25T18:55:51.938Z,2.23
2023-02-25T18:58:21.314Z,2.97
2023-02-25T19:00:51.119Z,3.63
2023-02-25T19:03:25.865Z,4.13
2023-02-25T19:05:52.427Z,3.13
2023-02-25T19:08:19.369Z,2.30
2023-02-25T19:10:46.562Z,1.65
2023-02-25T19:13:20.243Z,2.83
2023-02-25T19:15:47.626Z,1.45
2023-02-25T19:18:17.016Z,1.40
2023-02-25T19:20:44.996Z,2.23
2023-02-25T19:23:14.951Z,1.90
2023-02-25T19:25:43.285Z,1.52
2023-02-25T19:28:10.095Z,1.08
2023-02-25T19:30:41.507Z,1.90
2023-02-25T19:33:10.472Z,1.90
2023-02-25T19:35:39.908Z,2.75
2023-02-25T19:38:08.500Z,1.60
2023-02-25T19:40:36.815Z,2.53
2023-02-25T19:43:04.979Z,2.45
2023-02-25T19:45:32.316Z,3.13
2023-02-25T19:47:59.872Z,3.28
2023-02-25T19:50:27.862Z,3.35
2023-02-25T19:52:55.860Z,2.90
2023-02-25T19:55:22.888Z,2.72
2023-02-25T19:57:49.717Z,1.93
2023-02-25T20:00:21.499Z,1.90
2023-02-25T20:02:48.835Z,1.80
2023-02-25T20:05:15.742Z,1.83
2023-02-25T20:07:43.357Z,2.88
2023-02-25T20:10:13.071Z,1.60
2023-02-25T20:12:41.632Z,1.10
2023-02-25T20:15:11.005Z,1.17
2023-02-25T20:17:38.974Z,1.30
2023-02-25T20:20:08.409Z,1.60
2023-02-25T20:22:35.532Z,1.40
2023-02-25T20:25:02.325Z,1.65
2023-02-25T20:27:30.462Z,2.08
2023-02-25T20:29:57.326Z,18.08
2023-02-25T20:32:24.014Z,12.20
2023-02-25T20:34:50.806Z,4.80
2023-02-25T20:37:24.852Z,3.22
2023-02-25T20:39:56.408Z,2.88
2023-02-25T20:42:30.714Z,2.50
2023-02-25T20:44:59.029Z,2.30
2023-02-25T20:47:37.664Z,1.90
2023-02-25T20:50:07.347Z,1.95
2023-02-25T20:52:34.335Z,2.20
2023-02-25T20:55:01.027Z,2.63
2023-02-25T20:57:27.789Z,1.67
2023-02-25T20:59:54.748Z,1.73
2023-02-25T21:02:21.750Z,1.77
2023-02-25T21:04:48.894Z,2.70
2023-02-25T21:07:16.088Z,2.30
2023-02-25T21:09:42.767Z,2.55
2023-02-25T21:12:10.377Z,2.20
2023-02-25T21:14:37.500Z,1.60
2023-02-25T21:17:09.462Z,2.17
2023-02-25T21:19:38.774Z,7.32
2023-02-25T21:22:06.353Z,11.65
2023-02-25T21:24:33.673Z,15.30
2023-02-25T21:27:01.644Z,15.02
2023-02-25T21:29:28.483Z,12.05
2023-02-25T21:31:55.387Z,15.05
2023-02-25T21:34:22.139Z,5.53
2023-02-25T21:36:48.981Z,4.63
2023-02-25T21:39:15.460Z,4.13
2023-02-25T21:41:44.375Z,3.92
2023-02-25T21:44:12.564Z,3.25
2023-02-25T21:46:39.489Z,3.70
2023-02-25T21:49:06.258Z,2.40
2023-02-25T21:51:32.835Z,2.72
2023-02-25T21:54:01.140Z,2.53
2023-02-25T21:56:29.372Z,2.80
2023-02-25T21:58:58.965Z,2.00
2023-02-25T22:01:28.711Z,1.90
2023-02-25T22:03:55.449Z,2.00
2023-02-25T22:06:26.130Z,2.63
2023-02-25T22:08:54.348Z,2.75
2023-02-25T22:11:25.171Z,3.33
2023-02-25T22:13:54.589Z,2.83
2023-02-25T22:16:23.397Z,2.35
2023-02-25T22:18:51.138Z,2.92
2023-02-25T22:21:23.957Z,1.73
2023-02-25T22:23:52.410Z,1.45
2023-02-25T22:26:23.598Z,1.50
2023-02-25T22:28:54.090Z,1.67
2023-02-25T22:31:21.130Z,1.10
2023-02-25T22:33:47.880Z,1.30
2023-02-25T22:36:17.064Z,0.95
2023-02-25T22:38:45.648Z,0.83
2023-02-25T22:41:16.983Z,1.30
2023-02-25T22:43:44.037Z,1.20
2023-02-25T22:46:12.412Z,0.75
2023-02-25T22:48:40.945Z,0.65
2023-02-25T22:51:09.548Z,1.00
2023-02-25T22:53:37.189Z,0.82
2023-02-25T22:56:06.247Z,1.58
2023-02-25T22:58:33.487Z,1.05
2023-02-25T23:01:00.225Z,1.45
2023-02-25T23:03:27.477Z,1.10
2023-02-25T23:05:54.856Z,1.30
2023-02-25T23:08:22.464Z,1.73
2023-02-25T23:10:49.345Z,1.05
2023-02-25T23:13:16.010Z,1.80
2023-02-25T23:15:45.805Z,1.67
2023-02-25T23:18:12.644Z,2.60
2023-02-25T23:20:40.322Z,2.55
2023-02-25T23:23:09.420Z,2.40
2023-02-25T23:25:41.074Z,2.75
2023-02-25T23:28:09.463Z,1.93
2023-02-25T23:30:52.531Z,1.55
2023-02-25T23:33:19.115Z,1.85
2023-02-25T23:35:45.715Z,1.40
2023-02-25T23:38:12.265Z,1.80
2023-02-25T23:40:39.399Z,1.67
2023-02-25T23:43:06.004Z,1.75
2023-02-25T23:45:32.899Z,1.60
2023-02-25T23:47:59.797Z,2.50
2023-02-25T23:50:27.117Z,0.95
2023-02-25T23:52:54.069Z,1.10
2023-02-25T23:55:21.827Z,1.05
2023-02-25T23:57:49.144Z,0.77
